sensor_id;sensor_type;location;lat;lon;timestamp;pressure;altitude;pressure_sealevel;temperature;humidity
31357;BME280;60001;48.404;11.738;2023-05-19T00:01:02;96784.22;;;11.59;65.29
31357;BME280;60001;48.404;11.738;2023-05-19T00:02:35;96780.47;;;11.55;65.79
31357;BME280;60001;48.404;11.738;2023-05-19T00:04:09;96782.00;;;11.50;65.42
31357;BME280;60001;48.404;11.738;2023-05-19T00:05:42;96782.69;;;11.41;66.11
31357;BME280;60001;48.404;11.738;2023-05-19T00:07:17;96774.13;;;11.56;65.52
31357;BME280;60001;48.404;11.738;2023-05-19T00:08:56;96756.06;;;11.47;65.36
31357;BME280;60001;48.404;11.738;2023-05-19T00:10:29;96764.81;;;11.53;65.47
31357;BME280;60001;48.404;11.738;2023-05-19T00:12:02;96774.94;;;11.56;65.52
31357;BME280;60001;48.404;11.738;2023-05-19T00:13:34;96766.66;;;11.52;65.55
31357;BME280;60001;48.404;11.738;2023-05-19T00:15:08;96766.75;;;11.58;65.35
31357;BME280;60001;48.404;11.738;2023-05-19T00:16:40;96755.00;;;11.48;65.51
31357;BME280;60001;48.404;11.738;2023-05-19T00:18:12;96771.66;;;11.49;66.00
31357;BME280;60001;48.404;11.738;2023-05-19T00:19:43;96769.63;;;11.56;65.32
31357;BME280;60001;48.404;11.738;2023-05-19T00:21:15;96769.47;;;11.63;65.27
31357;BME280;60001;48.404;11.738;2023-05-19T00:22:48;96772.22;;;11.51;66.15
31357;BME280;60001;48.404;11.738;2023-05-19T00:24:22;96767.25;;;11.55;65.90
31357;BME280;60001;48.404;11.738;2023-05-19T00:25:54;96769.47;;;11.63;65.87
31357;BME280;60001;48.404;11.738;2023-05-19T00:27:26;96761.44;;;11.58;65.76
31357;BME280;60001;48.404;11.738;2023-05-19T00:28:57;96764.97;;;11.63;65.56
31357;BME280;60001;48.404;11.738;2023-05-19T00:30:29;96764.97;;;11.63;65.92
31357;BME280;60001;48.404;11.738;2023-05-19T00:32:01;96759.66;;;11.63;66.19
31357;BME280;60001;48.404;11.738;2023-05-19T00:33:32;96761.00;;;11.66;65.82
31357;BME280;60001;48.404;11.738;2023-05-19T00:35:04;96760.75;;;11.67;65.90
31357;BME280;60001;48.404;11.738;2023-05-19T00:36:36;96760.75;;;11.67;65.51
31357;BME280;60001;48.404;11.738;2023-05-19T00:38:09;96751.75;;;11.63;65.87
31357;BME280;60001;48.404;11.738;2023-05-19T00:39:40;96754.44;;;11.68;66.14
31357;BME280;60001;48.404;11.738;2023-05-19T00:41:13;96752.09;;;11.50;66.55
31357;BME280;60001;48.404;11.738;2023-05-19T00:42:44;96750.88;;;11.58;66.38
31357;BME280;60001;48.404;11.738;2023-05-19T00:44:16;96754.38;;;11.63;66.04
31357;BME280;60001;48.404;11.738;2023-05-19T00:45:48;96758.38;;;11.66;65.64
31357;BME280;60001;48.404;11.738;2023-05-19T00:47:19;96753.88;;;11.66;65.95
31357;BME280;60001;48.404;11.738;2023-05-19T00:48:51;96752.03;;;11.45;66.84
31357;BME280;60001;48.404;11.738;2023-05-19T00:50:23;96752.59;;;11.47;66.89
31357;BME280;60001;48.404;11.738;2023-05-19T00:51:54;96749.94;;;11.47;66.54
31357;BME280;60001;48.404;11.738;2023-05-19T00:53:28;96744.97;;;11.50;66.32
31357;BME280;60001;48.404;11.738;2023-05-19T00:55:00;96747.97;;;11.59;65.99
31357;BME280;60001;48.404;11.738;2023-05-19T00:56:32;96744.72;;;11.52;66.53
31357;BME280;60001;48.404;11.738;2023-05-19T00:58:05;96735.50;;;11.55;66.03
31357;BME280;60001;48.404;11.738;2023-05-19T00:59:36;96742.88;;;11.52;66.41
31357;BME280;60001;48.404;11.738;2023-05-19T01:01:08;96741.19;;;11.46;66.85
31357;BME280;60001;48.404;11.738;2023-05-19T01:02:43;96735.81;;;11.58;65.99
31357;BME280;60001;48.404;11.738;2023-05-19T01:04:17;96735.25;;;11.56;66.00
31357;BME280;60001;48.404;11.738;2023-05-19T01:05:49;96728.84;;;11.52;65.98
31357;BME280;60001;48.404;11.738;2023-05-19T01:07:23;96728.38;;;11.55;66.03
31357;BME280;60001;48.404;11.738;2023-05-19T01:08:56;96724.97;;;11.60;65.79
31357;BME280;60001;48.404;11.738;2023-05-19T01:10:28;96725.22;;;11.58;65.93
31357;BME280;60001;48.404;11.738;2023-05-19T01:11:59;96728.13;;;11.57;65.93
31357;BME280;60001;48.404;11.738;2023-05-19T01:13:32;96728.31;;;11.50;65.97
31357;BME280;60001;48.404;11.738;2023-05-19T01:15:06;96718.81;;;11.54;65.97
31357;BME280;60001;48.404;11.738;2023-05-19T01:16:43;96715.00;;;11.45;66.07
31357;BME280;60001;48.404;11.738;2023-05-19T01:18:24;96719.56;;;11.49;66.00
31357;BME280;60001;48.404;11.738;2023-05-19T01:20:05;96719.25;;;11.46;65.81
31357;BME280;60001;48.404;11.738;2023-05-19T01:22:06;96720.38;;;11.50;65.91
31357;BME280;60001;48.404;11.738;2023-05-19T01:23:51;96718.72;;;11.44;65.90
31357;BME280;60001;48.404;11.738;2023-05-19T01:25:57;96721.72;;;11.52;65.39
31357;BME280;60001;48.404;11.738;2023-05-19T01:30:16;96716.78;;;11.39;66.27
31357;BME280;60001;48.404;11.738;2023-05-19T01:31:54;96713.94;;;11.41;65.94
31357;BME280;60001;48.404;11.738;2023-05-19T01:33:29;96718.47;;;11.45;65.91
31357;BME280;60001;48.404;11.738;2023-05-19T01:35:04;96718.72;;;11.44;65.84
31357;BME280;60001;48.404;11.738;2023-05-19T01:36:37;96724.59;;;11.51;65.64
31357;BME280;60001;48.404;11.738;2023-05-19T01:38:16;96722.41;;;11.43;65.93
31357;BME280;60001;48.404;11.738;2023-05-19T01:39:49;96731.84;;;11.39;66.21
31357;BME280;60001;48.404;11.738;2023-05-19T01:41:21;96722.41;;;11.43;65.98
31357;BME280;60001;48.404;11.738;2023-05-19T01:42:56;96725.66;;;11.50;65.95
31357;BME280;60001;48.404;11.738;2023-05-19T01:44:28;96723.19;;;11.43;65.80
31357;BME280;60001;48.404;11.738;2023-05-19T01:46:02;96739.25;;;11.37;66.30
31357;BME280;60001;48.404;11.738;2023-05-19T01:47:37;96733.47;;;11.40;66.20
31357;BME280;60001;48.404;11.738;2023-05-19T01:49:10;96732.78;;;11.49;65.74
31357;BME280;60001;48.404;11.738;2023-05-19T01:50:42;96732.97;;;11.43;65.84
31357;BME280;60001;48.404;11.738;2023-05-19T01:52:12;96731.19;;;11.48;65.56
31357;BME280;60001;48.404;11.738;2023-05-19T01:53:44;96732.53;;;11.51;65.85
31357;BME280;60001;48.404;11.738;2023-05-19T01:55:16;96731.03;;;11.55;65.83
31357;BME280;60001;48.404;11.738;2023-05-19T01:56:54;96731.25;;;11.53;65.54
31357;BME280;60001;48.404;11.738;2023-05-19T01:58:37;96725.72;;;11.55;65.71
31357;BME280;60001;48.404;11.738;2023-05-19T02:00:20;96729.91;;;11.51;65.77
31357;BME280;60001;48.404;11.738;2023-05-19T02:02:02;96695.47;;;11.24;66.18
31357;BME280;60001;48.404;11.738;2023-05-19T02:03:45;96732.25;;;11.47;65.78
31357;BME280;60001;48.404;11.738;2023-05-19T02:05:25;96724.09;;;11.32;66.04
31357;BME280;60001;48.404;11.738;2023-05-19T02:07:04;96723.50;;;11.47;65.64
31357;BME280;60001;48.404;11.738;2023-05-19T02:08:43;96725.41;;;11.51;65.73
31357;BME280;60001;48.404;11.738;2023-05-19T02:10:26;96727.50;;;11.49;65.38
31357;BME280;60001;48.404;11.738;2023-05-19T02:12:03;96726.09;;;11.42;66.11
31357;BME280;60001;48.404;11.738;2023-05-19T02:13:42;96725.13;;;11.48;66.10
31357;BME280;60001;48.404;11.738;2023-05-19T02:15:15;96725.59;;;11.45;65.77
31357;BME280;60001;48.404;11.738;2023-05-19T02:16:47;96723.44;;;11.42;66.16
31357;BME280;60001;48.404;11.738;2023-05-19T02:18:20;96710.66;;;11.34;66.43
31357;BME280;60001;48.404;11.738;2023-05-19T02:19:52;96722.84;;;11.35;66.53
31357;BME280;60001;48.404;11.738;2023-05-19T02:21:23;96723.94;;;11.39;66.25
31357;BME280;60001;48.404;11.738;2023-05-19T02:22:54;96719.44;;;11.39;66.33
31357;BME280;60001;48.404;11.738;2023-05-19T02:24:26;96722.50;;;11.31;66.95
31357;BME280;60001;48.404;11.738;2023-05-19T02:25:58;96714.84;;;11.30;67.00
31357;BME280;60001;48.404;11.738;2023-05-19T02:27:30;96710.59;;;11.29;66.66
31357;BME280;60001;48.404;11.738;2023-05-19T02:29:01;96717.91;;;11.21;66.81
31357;BME280;60001;48.404;11.738;2023-05-19T02:30:32;96702.16;;;11.10;67.23
31357;BME280;60001;48.404;11.738;2023-05-19T02:32:05;96725.25;;;11.19;67.16
31357;BME280;60001;48.404;11.738;2023-05-19T02:33:37;96719.06;;;11.31;67.10
31357;BME280;60001;48.404;11.738;2023-05-19T02:35:09;96718.78;;;11.27;67.08
31357;BME280;60001;48.404;11.738;2023-05-19T02:36:41;96716.97;;;11.33;66.70
31357;BME280;60001;48.404;11.738;2023-05-19T02:38:13;96698.09;;;11.24;66.67
31357;BME280;60001;48.404;11.738;2023-05-19T02:39:46;96715.69;;;11.35;66.05
31357;BME280;60001;48.404;11.738;2023-05-19T02:41:16;96719.69;;;11.38;66.28
31357;BME280;60001;48.404;11.738;2023-05-19T02:42:48;96719.06;;;11.31;66.36
31357;BME280;60001;48.404;11.738;2023-05-19T02:44:19;96713.59;;;11.37;66.58
31357;BME280;60001;48.404;11.738;2023-05-19T02:45:51;96699.16;;;11.23;66.86
31357;BME280;60001;48.404;11.738;2023-05-19T02:47:22;96707.69;;;11.30;66.91
31357;BME280;60001;48.404;11.738;2023-05-19T02:48:55;96707.44;;;11.32;66.67
31357;BME280;60001;48.404;11.738;2023-05-19T02:50:27;96710.28;;;11.25;66.92
31357;BME280;60001;48.404;11.738;2023-05-19T02:51:59;96707.19;;;11.33;66.61
31357;BME280;60001;48.404;11.738;2023-05-19T02:53:31;96700.09;;;11.34;66.79
31357;BME280;60001;48.404;11.738;2023-05-19T02:55:03;96704.63;;;11.38;66.44
31357;BME280;60001;48.404;11.738;2023-05-19T02:56:35;96700.94;;;11.39;66.66
31357;BME280;60001;48.404;11.738;2023-05-19T02:58:06;96702.06;;;11.21;67.42
31357;BME280;60001;48.404;11.738;2023-05-19T02:59:38;96704.34;;;11.35;66.69
31357;BME280;60001;48.404;11.738;2023-05-19T03:01:10;96701.38;;;11.31;67.27
31357;BME280;60001;48.404;11.738;2023-05-19T03:02:42;96702.47;;;11.35;67.00
31357;BME280;60001;48.404;11.738;2023-05-19T03:04:15;96702.13;;;11.27;67.15
31357;BME280;60001;48.404;11.738;2023-05-19T03:05:49;96704.63;;;11.38;66.95
31357;BME280;60001;48.404;11.738;2023-05-19T03:07:21;96703.91;;;11.43;66.79
31357;BME280;60001;48.404;11.738;2023-05-19T03:08:54;96703.53;;;11.34;67.36
31357;BME280;60001;48.404;11.738;2023-05-19T03:10:26;96703.56;;;11.39;66.92
31357;BME280;60001;48.404;11.738;2023-05-19T03:11:57;96704.19;;;11.46;67.11
31357;BME280;60001;48.404;11.738;2023-05-19T03:13:33;96704.34;;;11.35;67.44
31357;BME280;60001;48.404;11.738;2023-05-19T03:15:05;96712.25;;;11.35;67.70
31357;BME280;60001;48.404;11.738;2023-05-19T03:16:37;96708.81;;;11.34;67.45
31357;BME280;60001;48.404;11.738;2023-05-19T03:18:10;96704.75;;;11.48;67.21
31357;BME280;60001;48.404;11.738;2023-05-19T03:19:44;96703.47;;;11.51;66.74
31357;BME280;60001;48.404;11.738;2023-05-19T03:21:15;96703.09;;;11.42;67.22
31357;BME280;60001;48.404;11.738;2023-05-19T03:22:46;96697.56;;;11.44;67.25
31357;BME280;60001;48.404;11.738;2023-05-19T03:24:18;96702.66;;;11.50;66.91
31357;BME280;60001;48.404;11.738;2023-05-19T03:25:50;96695.41;;;11.41;67.16
31357;BME280;60001;48.404;11.738;2023-05-19T03:27:23;96708.94;;;11.44;67.03
31357;BME280;60001;48.404;11.738;2023-05-19T03:28:55;96679.16;;;11.32;67.04
31357;BME280;60001;48.404;11.738;2023-05-19T03:30:26;96709.78;;;11.50;66.82
31357;BME280;60001;48.404;11.738;2023-05-19T03:31:57;96704.97;;;11.47;67.51
31357;BME280;60001;48.404;11.738;2023-05-19T03:33:29;96710.34;;;11.52;67.44
31357;BME280;60001;48.404;11.738;2023-05-19T03:35:03;96704.50;;;11.50;67.44
31357;BME280;60001;48.404;11.738;2023-05-19T03:36:34;96707.00;;;11.40;67.61
31357;BME280;60001;48.404;11.738;2023-05-19T03:38:08;96708.13;;;11.44;67.80
31357;BME280;60001;48.404;11.738;2023-05-19T03:39:39;96701.00;;;11.44;67.52
31357;BME280;60001;48.404;11.738;2023-05-19T03:41:11;96696.03;;;11.48;67.10
31357;BME280;60001;48.404;11.738;2023-05-19T03:42:43;96700.56;;;11.52;67.11
31357;BME280;60001;48.404;11.738;2023-05-19T03:44:15;96696.69;;;11.38;67.87
31357;BME280;60001;48.404;11.738;2023-05-19T03:45:46;96700.44;;;11.42;67.95
31357;BME280;60001;48.404;11.738;2023-05-19T03:47:18;96697.91;;;11.52;67.42
31357;BME280;60001;48.404;11.738;2023-05-19T03:48:50;96698.28;;;11.39;67.82
31357;BME280;60001;48.404;11.738;2023-05-19T03:50:23;96699.47;;;11.48;67.54
31357;BME280;60001;48.404;11.738;2023-05-19T03:51:56;96700.56;;;11.52;67.34
31357;BME280;60001;48.404;11.738;2023-05-19T03:53:27;96701.94;;;11.55;67.26
31357;BME280;60001;48.404;11.738;2023-05-19T03:54:59;96697.88;;;11.47;67.67
31357;BME280;60001;48.404;11.738;2023-05-19T03:56:31;96703.09;;;11.42;67.91
31357;BME280;60001;48.404;11.738;2023-05-19T03:58:03;96709.19;;;11.43;67.72
31357;BME280;60001;48.404;11.738;2023-05-19T03:59:35;96698.25;;;11.34;67.88
31357;BME280;60001;48.404;11.738;2023-05-19T04:01:07;96695.34;;;11.36;68.08
31357;BME280;60001;48.404;11.738;2023-05-19T04:02:39;96703.16;;;11.47;67.64
31357;BME280;60001;48.404;11.738;2023-05-19T04:04:11;96706.28;;;11.44;68.05
31357;BME280;60001;48.404;11.738;2023-05-19T04:05:44;96703.78;;;11.55;67.50
31357;BME280;60001;48.404;11.738;2023-05-19T04:07:15;96703.19;;;11.52;67.27
31357;BME280;60001;48.404;11.738;2023-05-19T04:08:47;96692.09;;;11.50;67.37
31357;BME280;60001;48.404;11.738;2023-05-19T04:10:18;96705.59;;;11.54;67.25
31357;BME280;60001;48.404;11.738;2023-05-19T04:11:50;96694.56;;;11.35;67.99
31357;BME280;60001;48.404;11.738;2023-05-19T04:13:21;96704.09;;;11.36;67.97
31357;BME280;60001;48.404;11.738;2023-05-19T04:14:53;96682.56;;;11.28;67.97
31357;BME280;60001;48.404;11.738;2023-05-19T04:16:25;96703.97;;;11.48;67.86
31357;BME280;60001;48.404;11.738;2023-05-19T04:17:56;96698.69;;;11.48;67.80
31357;BME280;60001;48.404;11.738;2023-05-19T04:19:28;96703.22;;;11.31;68.75
31357;BME280;60001;48.404;11.738;2023-05-19T04:21:02;96699.84;;;11.35;68.63
31357;BME280;60001;48.404;11.738;2023-05-19T04:22:33;96709.44;;;11.41;68.43
31357;BME280;60001;48.404;11.738;2023-05-19T04:24:05;96702.34;;;11.47;68.46
31357;BME280;60001;48.404;11.738;2023-05-19T04:25:37;96704.19;;;11.46;68.32
31357;BME280;60001;48.404;11.738;2023-05-19T04:27:10;96700.81;;;11.51;68.05
31357;BME280;60001;48.404;11.738;2023-05-19T04:28:42;96711.38;;;11.51;68.37
31357;BME280;60001;48.404;11.738;2023-05-19T04:30:14;96712.19;;;11.51;68.14
31357;BME280;60001;48.404;11.738;2023-05-19T04:31:51;96709.91;;;11.60;67.86
31357;BME280;60001;48.404;11.738;2023-05-19T04:33:23;96718.44;;;11.67;67.57
31357;BME280;60001;48.404;11.738;2023-05-19T04:34:54;96711.56;;;11.66;67.37
31357;BME280;60001;48.404;11.738;2023-05-19T04:36:27;96723.19;;;11.65;67.84
31357;BME280;60001;48.404;11.738;2023-05-19T04:37:58;96714.72;;;11.63;67.85
31357;BME280;60001;48.404;11.738;2023-05-19T04:39:30;96711.63;;;11.71;67.06
31357;BME280;60001;48.404;11.738;2023-05-19T04:41:01;96710.28;;;11.69;67.57
31357;BME280;60001;48.404;11.738;2023-05-19T04:42:33;96710.88;;;11.76;67.75
31357;BME280;60001;48.404;11.738;2023-05-19T04:44:05;96706.44;;;11.82;68.31
31357;BME280;60001;48.404;11.738;2023-05-19T04:45:38;96705.00;;;11.69;69.29
31357;BME280;60001;48.404;11.738;2023-05-19T04:47:12;96703.16;;;11.74;69.08
31357;BME280;60001;48.404;11.738;2023-05-19T04:48:44;96701.41;;;11.58;70.50
31357;BME280;60001;48.404;11.738;2023-05-19T04:50:15;96700.91;;;11.61;69.72
31357;BME280;60001;48.404;11.738;2023-05-19T04:51:48;96697.13;;;11.30;69.77
31357;BME280;60001;48.404;11.738;2023-05-19T04:53:20;96693.31;;;11.43;69.22
31357;BME280;60001;48.404;11.738;2023-05-19T04:54:55;96703.63;;;11.66;68.49
31357;BME280;60001;48.404;11.738;2023-05-19T04:56:26;96700.19;;;11.66;68.10
31357;BME280;60001;48.404;11.738;2023-05-19T04:57:59;96691.88;;;11.57;68.76
31357;BME280;60001;48.404;11.738;2023-05-19T04:59:31;96695.84;;;11.55;68.72
31357;BME280;60001;48.404;11.738;2023-05-19T05:01:03;96693.75;;;11.57;69.12
31357;BME280;60001;48.404;11.738;2023-05-19T05:02:34;96692.69;;;11.58;68.65
31357;BME280;60001;48.404;11.738;2023-05-19T05:04:06;96690.44;;;11.71;68.16
31357;BME280;60001;48.404;11.738;2023-05-19T05:05:38;96692.84;;;11.73;68.43
31357;BME280;60001;48.404;11.738;2023-05-19T05:07:10;96694.84;;;11.83;68.13
31357;BME280;60001;48.404;11.738;2023-05-19T05:08:42;96695.38;;;11.85;68.06
31357;BME280;60001;48.404;11.738;2023-05-19T05:10:13;96694.28;;;11.80;67.95
31357;BME280;60001;48.404;11.738;2023-05-19T05:11:45;96689.00;;;11.59;68.63
31357;BME280;60001;48.404;11.738;2023-05-19T05:13:17;96694.59;;;11.84;68.02
31357;BME280;60001;48.404;11.738;2023-05-19T05:14:50;96690.50;;;11.76;67.91
31357;BME280;60001;48.404;11.738;2023-05-19T05:16:22;96692.69;;;11.58;68.87
31357;BME280;60001;48.404;11.738;2023-05-19T05:17:55;96694.34;;;11.64;68.62
31357;BME280;60001;48.404;11.738;2023-05-19T05:19:27;96700.53;;;11.74;68.67
31357;BME280;60001;48.404;11.738;2023-05-19T05:21:00;96704.84;;;11.59;69.16
31357;BME280;60001;48.404;11.738;2023-05-19T05:22:34;96692.75;;;11.63;68.64
31357;BME280;60001;48.404;11.738;2023-05-19T05:24:07;96692.31;;;11.71;67.96
31357;BME280;60001;48.404;11.738;2023-05-19T05:25:39;96686.75;;;11.72;68.34
31357;BME280;60001;48.404;11.738;2023-05-19T05:27:11;96694.09;;;11.65;68.54
31357;BME280;60001;48.404;11.738;2023-05-19T05:28:43;96697.16;;;11.79;68.45
31357;BME280;60001;48.404;11.738;2023-05-19T05:30:15;96690.63;;;11.87;68.28
31357;BME280;60001;48.404;11.738;2023-05-19T05:31:47;96688.31;;;11.95;67.73
31357;BME280;60001;48.404;11.738;2023-05-19T05:33:19;96668.66;;;11.86;67.90
31357;BME280;60001;48.404;11.738;2023-05-19T05:34:51;96685.16;;;11.93;68.04
31357;BME280;60001;48.404;11.738;2023-05-19T05:36:23;96664.69;;;11.84;67.88
31357;BME280;60001;48.404;11.738;2023-05-19T05:37:56;96677.22;;;11.93;67.93
31357;BME280;60001;48.404;11.738;2023-05-19T05:39:27;96678.25;;;11.92;68.10
31357;BME280;60001;48.404;11.738;2023-05-19T05:40:59;96661.53;;;11.87;68.19
31357;BME280;60001;48.404;11.738;2023-05-19T05:42:32;96675.44;;;11.77;68.77
31357;BME280;60001;48.404;11.738;2023-05-19T05:44:04;96680.06;;;11.87;68.25
31357;BME280;60001;48.404;11.738;2023-05-19T05:45:35;96672.16;;;11.92;68.72
31357;BME280;60001;48.404;11.738;2023-05-19T05:47:08;96681.34;;;11.84;68.82
31357;BME280;60001;48.404;11.738;2023-05-19T05:48:41;96680.06;;;11.87;68.80
31357;BME280;60001;48.404;11.738;2023-05-19T05:50:14;96682.56;;;11.98;68.15
31357;BME280;60001;48.404;11.738;2023-05-19T05:51:46;96684.72;;;11.79;68.96
31357;BME280;60001;48.404;11.738;2023-05-19T05:53:20;96680.13;;;11.70;69.00
31357;BME280;60001;48.404;11.738;2023-05-19T05:54:54;96675.63;;;11.70;69.46
31357;BME280;60001;48.404;11.738;2023-05-19T05:56:26;96680.94;;;11.70;69.07
31357;BME280;60001;48.404;11.738;2023-05-19T05:57:58;96682.53;;;11.71;69.64
31357;BME280;60001;48.404;11.738;2023-05-19T05:59:31;96686.66;;;11.84;69.16
31357;BME280;60001;48.404;11.738;2023-05-19T06:01:04;96684.34;;;11.93;68.93
31357;BME280;60001;48.404;11.738;2023-05-19T06:02:41;96683.84;;;11.96;69.27
31357;BME280;60001;48.404;11.738;2023-05-19T06:04:13;96685.47;;;12.02;68.67
31357;BME280;60001;48.404;11.738;2023-05-19T06:05:45;96683.44;;;12.09;69.05
31357;BME280;60001;48.404;11.738;2023-05-19T06:07:17;96676.34;;;12.15;68.56
31357;BME280;60001;48.404;11.738;2023-05-19T06:08:50;96668.47;;;11.93;68.59
31357;BME280;60001;48.404;11.738;2023-05-19T06:10:22;96689.81;;;12.13;68.50
31357;BME280;60001;48.404;11.738;2023-05-19T06:11:54;96686.50;;;12.28;67.75
31357;BME280;60001;48.404;11.738;2023-05-19T06:13:25;96680.69;;;12.26;67.47
31357;BME280;60001;48.404;11.738;2023-05-19T06:14:57;96676.25;;;12.37;67.13
31357;BME280;60001;48.404;11.738;2023-05-19T06:16:29;96676.59;;;12.50;66.94
31357;BME280;60001;48.404;11.738;2023-05-19T06:18:00;96677.13;;;12.47;66.33
31357;BME280;60001;48.404;11.738;2023-05-19T06:19:32;96685.69;;;12.59;66.45
31357;BME280;60001;48.404;11.738;2023-05-19T06:21:04;96688.38;;;12.65;66.08
31357;BME280;60001;48.404;11.738;2023-05-19T06:22:36;96687.66;;;12.74;65.78
31357;BME280;60001;48.404;11.738;2023-05-19T06:24:09;96695.06;;;12.77;65.79
31357;BME280;60001;48.404;11.738;2023-05-19T06:25:41;96685.66;;;12.54;65.09
31357;BME280;60001;48.404;11.738;2023-05-19T06:27:13;96687.78;;;12.57;65.08
31357;BME280;60001;48.404;11.738;2023-05-19T06:28:44;96691.75;;;12.55;64.68
31357;BME280;60001;48.404;11.738;2023-05-19T06:30:16;96689.06;;;12.50;64.92
31357;BME280;60001;48.404;11.738;2023-05-19T06:31:48;96683.63;;;12.67;64.57
31357;BME280;60001;48.404;11.738;2023-05-19T06:33:20;96687.66;;;12.74;63.44
31357;BME280;60001;48.404;11.738;2023-05-19T06:34:52;96683.50;;;12.51;64.95
31357;BME280;60001;48.404;11.738;2023-05-19T06:36:24;96679.13;;;12.72;64.77
31357;BME280;60001;48.404;11.738;2023-05-19T06:37:56;96687.34;;;12.33;65.34
31357;BME280;60001;48.404;11.738;2023-05-19T06:39:29;96687.50;;;12.22;65.63
31357;BME280;60001;48.404;11.738;2023-05-19T06:41:01;96685.63;;;12.17;65.53
31357;BME280;60001;48.404;11.738;2023-05-19T06:42:33;96688.06;;;12.24;64.91
31357;BME280;60001;48.404;11.738;2023-05-19T06:44:06;96692.28;;;12.52;64.43
31357;BME280;60001;48.404;11.738;2023-05-19T06:45:38;96684.53;;;12.45;64.72
31357;BME280;60001;48.404;11.738;2023-05-19T06:47:09;96686.44;;;12.55;63.45
31357;BME280;60001;48.404;11.738;2023-05-19T06:48:41;96683.22;;;12.48;63.91
31357;BME280;60001;48.404;11.738;2023-05-19T06:50:13;96695.88;;;12.41;64.38
31357;BME280;60001;48.404;11.738;2023-05-19T06:51:45;96697.56;;;12.52;64.30
31357;BME280;60001;48.404;11.738;2023-05-19T06:53:19;96696.03;;;12.61;63.88
31357;BME280;60001;48.404;11.738;2023-05-19T06:54:52;96686.22;;;12.61;63.78
31357;BME280;60001;48.404;11.738;2023-05-19T06:56:24;96698.56;;;12.46;64.45
31357;BME280;60001;48.404;11.738;2023-05-19T06:57:55;96701.81;;;12.53;64.40
31357;BME280;60001;48.404;11.738;2023-05-19T06:59:27;96695.94;;;12.46;63.70
31357;BME280;60001;48.404;11.738;2023-05-19T07:00:59;96699.38;;;12.51;63.53
31357;BME280;60001;48.404;11.738;2023-05-19T07:02:31;96696.06;;;12.66;62.80
31357;BME280;60001;48.404;11.738;2023-05-19T07:04:02;96690.25;;;12.69;61.50
31357;BME280;60001;48.404;11.738;2023-05-19T07:05:34;96694.84;;;12.84;61.81
31357;BME280;60001;48.404;11.738;2023-05-19T07:07:06;96694.81;;;12.79;63.11
31357;BME280;60001;48.404;11.738;2023-05-19T07:08:38;96688.94;;;12.72;63.20
31357;BME280;60001;48.404;11.738;2023-05-19T07:10:11;96652.09;;;12.70;61.82
31357;BME280;60001;48.404;11.738;2023-05-19T07:11:43;96689.38;;;12.96;61.86
31357;BME280;60001;48.404;11.738;2023-05-19T07:13:15;96686.41;;;12.92;61.63
31357;BME280;60001;48.404;11.738;2023-05-19T07:14:47;96689.38;;;12.96;61.49
31357;BME280;60001;48.404;11.738;2023-05-19T07:16:18;96680.13;;;13.03;61.30
31357;BME280;60001;48.404;11.738;2023-05-19T07:17:50;96685.47;;;13.08;60.72
31357;BME280;60001;48.404;11.738;2023-05-19T07:19:22;96683.59;;;13.14;61.29
31357;BME280;60001;48.404;11.738;2023-05-19T07:20:54;96682.00;;;13.08;62.28
31357;BME280;60001;48.404;11.738;2023-05-19T07:22:26;96688.75;;;13.26;61.77
31357;BME280;60001;48.404;11.738;2023-05-19T07:23:59;96690.38;;;13.42;61.32
31357;BME280;60001;48.404;11.738;2023-05-19T07:25:32;96693.09;;;13.52;61.17
31357;BME280;60001;48.404;11.738;2023-05-19T07:27:04;96697.88;;;13.55;59.32
31357;BME280;60001;48.404;11.738;2023-05-19T07:28:36;96687.75;;;13.37;59.08
31357;BME280;60001;48.404;11.738;2023-05-19T07:30:09;96697.84;;;13.45;58.99
31357;BME280;60001;48.404;11.738;2023-05-19T07:31:40;96693.09;;;13.52;60.11
31357;BME280;60001;48.404;11.738;2023-05-19T07:33:12;96677.59;;;13.24;60.02
31357;BME280;60001;48.404;11.738;2023-05-19T07:34:44;96678.88;;;13.16;58.99
31357;BME280;60001;48.404;11.738;2023-05-19T07:36:16;96665.78;;;12.99;58.94
31357;BME280;60001;48.404;11.738;2023-05-19T07:37:48;96683.69;;;13.24;58.41
31357;BME280;60001;48.404;11.738;2023-05-19T07:39:20;96676.47;;;13.20;58.47
31357;BME280;60001;48.404;11.738;2023-05-19T07:40:55;96687.16;;;13.25;59.09
31357;BME280;60001;48.404;11.738;2023-05-19T07:42:27;96650.72;;;13.10;59.11
31357;BME280;60001;48.404;11.738;2023-05-19T07:43:59;96684.81;;;13.38;59.03
31357;BME280;60001;48.404;11.738;2023-05-19T07:45:31;96684.94;;;13.11;58.93
31357;BME280;60001;48.404;11.738;2023-05-19T07:47:03;96694.88;;;13.31;58.81
31357;BME280;60001;48.404;11.738;2023-05-19T07:48:35;96694.88;;;13.31;58.21
31357;BME280;60001;48.404;11.738;2023-05-19T07:50:07;96686.66;;;13.38;58.45
31357;BME280;60001;48.404;11.738;2023-05-19T07:51:39;96674.69;;;13.25;59.00
31357;BME280;60001;48.404;11.738;2023-05-19T07:53:14;96682.13;;;13.28;58.55
31357;BME280;60001;48.404;11.738;2023-05-19T07:54:46;96685.06;;;13.42;58.51
31357;BME280;60001;48.404;11.738;2023-05-19T07:56:19;96688.47;;;13.27;59.65
31357;BME280;60001;48.404;11.738;2023-05-19T07:57:52;96683.41;;;13.21;59.50
31357;BME280;60001;48.404;11.738;2023-05-19T07:59:24;96674.19;;;13.28;57.85
31357;BME280;60001;48.404;11.738;2023-05-19T08:00:56;96682.00;;;13.08;60.04
31357;BME280;60001;48.404;11.738;2023-05-19T08:02:28;96683.69;;;13.24;59.52
31357;BME280;60001;48.404;11.738;2023-05-19T08:04:00;96674.00;;;12.98;60.26
31357;BME280;60001;48.404;11.738;2023-05-19T08:05:33;96692.34;;;13.09;60.02
31357;BME280;60001;48.404;11.738;2023-05-19T08:07:05;96687.91;;;12.73;60.98
31357;BME280;60001;48.404;11.738;2023-05-19T08:08:37;96683.25;;;12.95;60.18